createdAt,value
2018-05-17T00:01:27.385Z,91.31
2018-05-17T00:04:30.037Z,90.98
2018-05-17T00:07:32.500Z,90.79
2018-05-17T00:10:34.980Z,91.25
2018-05-17T00:13:37.458Z,91.67
2018-05-17T00:16:39.960Z,91.53
2018-05-17T00:19:42.466Z,91.27
2018-05-17T00:22:44.898Z,91.32
2018-05-17T00:25:47.414Z,91.21
2018-05-17T00:28:49.906Z,91.17
2018-05-17T00:31:52.419Z,91.89
2018-05-17T00:34:54.876Z,91.45
2018-05-17T00:37:57.407Z,91.72
2018-05-17T00:41:00.900Z,91.50
2018-05-17T00:44:03.375Z,91.47
2018-05-17T00:47:05.799Z,91.62
2018-05-17T00:50:08.265Z,91.18
2018-05-17T00:53:22.533Z,91.06
2018-05-17T00:56:25.106Z,91.27
2018-05-17T00:59:27.580Z,91.56
2018-05-17T01:02:30.081Z,91.60
2018-05-17T01:05:32.596Z,91.34
2018-05-17T01:08:35.106Z,91.21
2018-05-17T01:11:37.658Z,91.12
2018-05-17T01:14:40.116Z,91.13
2018-05-17T01:17:42.580Z,91.39
2018-05-17T01:20:45.114Z,91.31
2018-05-17T01:23:47.606Z,90.97
2018-05-17T01:26:50.090Z,90.38
2018-05-17T01:29:52.532Z,90.38
2018-05-17T01:32:55.005Z,90.23
2018-05-17T01:35:57.441Z,90.52
2018-05-17T01:38:59.915Z,90.06
2018-05-17T01:42:02.347Z,90.36
2018-05-17T01:45:04.851Z,90.09
2018-05-17T01:48:07.898Z,90.18
2018-05-17T01:51:11.305Z,89.82
2018-05-17T01:54:13.814Z,89.91
2018-05-17T01:57:17.500Z,89.73
2018-05-17T02:00:20.055Z,89.82
2018-05-17T02:03:22.625Z,89.05
2018-05-17T02:06:25.067Z,89.43
2018-05-17T02:09:28.732Z,89.35
2018-05-17T02:12:31.236Z,89.57
2018-05-17T02:15:35.015Z,89.42
2018-05-17T02:18:37.485Z,89.83
2018-05-17T02:21:39.912Z,89.72
2018-05-17T02:24:42.485Z,89.60
2018-05-17T02:27:44.968Z,89.56
2018-05-17T02:30:47.437Z,89.45
2018-05-17T02:33:49.918Z,89.22
2018-05-17T02:36:52.336Z,88.74
2018-05-17T02:39:54.828Z,89.05
2018-05-17T02:42:57.304Z,88.15
2018-05-17T02:45:59.812Z,88.69
2018-05-17T02:49:02.398Z,89.38
2018-05-17T02:52:04.921Z,89.45
2018-05-17T02:55:07.365Z,89.34
2018-05-17T02:58:09.858Z,89.28
2018-05-17T03:01:12.408Z,88.68
2018-05-17T03:04:14.913Z,88.94
2018-05-17T03:07:17.417Z,89.82
2018-05-17T03:10:19.917Z,89.59
2018-05-17T03:13:23.781Z,89.67
2018-05-17T03:16:27.136Z,88.43
2018-05-17T03:19:32.543Z,88.59
2018-05-17T03:22:35.076Z,88.82
2018-05-17T03:25:38.464Z,88.54
2018-05-17T03:28:40.948Z,87.75
2018-05-17T03:31:43.378Z,86.81
2018-05-17T03:34:45.835Z,87.33
2018-05-17T03:37:48.288Z,87.68
2018-05-17T03:40:50.721Z,88.48
2018-05-17T03:43:53.239Z,88.43
2018-05-17T03:46:55.735Z,88.55
2018-05-17T03:49:58.289Z,88.87
2018-05-17T03:53:00.789Z,88.34
2018-05-17T03:56:03.249Z,88.83
2018-05-17T03:59:05.709Z,88.69
2018-05-17T04:02:20.078Z,86.88
2018-05-17T04:05:34.473Z,85.96
2018-05-17T04:08:36.943Z,85.33
2018-05-17T04:11:39.432Z,85.35
2018-05-17T04:14:42.801Z,85.41
2018-05-17T04:17:45.348Z,85.40
2018-05-17T04:20:47.843Z,85.51
2018-05-17T04:23:50.373Z,85.44
2018-05-17T04:26:52.857Z,85.92
2018-05-17T04:29:55.323Z,85.88
2018-05-17T04:32:57.762Z,85.66
2018-05-17T04:36:00.277Z,86.32
2018-05-17T04:39:02.757Z,86.50
2018-05-17T04:42:05.247Z,86.70
2018-05-17T04:45:07.822Z,86.25
2018-05-17T04:48:10.294Z,86.45
2018-05-17T04:51:12.742Z,86.32
2018-05-17T04:54:15.314Z,85.82
2018-05-17T04:57:17.840Z,85.53
2018-05-17T05:00:20.362Z,85.19
2018-05-17T05:03:22.903Z,84.76
2018-05-17T05:06:25.414Z,85.13
2018-05-17T05:09:27.901Z,84.40
2018-05-17T05:12:30.412Z,84.24
2018-05-17T05:15:32.948Z,84.29
2018-05-17T05:18:35.457Z,84.56
2018-05-17T05:21:37.960Z,84.18
2018-05-17T05:24:40.629Z,84.47
2018-05-17T05:27:43.124Z,84.46
2018-05-17T05:30:45.573Z,84.60
2018-05-17T05:33:48.048Z,83.81
2018-05-17T05:36:50.509Z,83.78
2018-05-17T05:39:52.994Z,83.78
2018-05-17T05:42:55.405Z,83.74
2018-05-17T05:45:57.898Z,83.48
2018-05-17T05:49:00.479Z,84.02
2018-05-17T05:52:03.085Z,84.03
2018-05-17T05:55:05.573Z,83.48
2018-05-17T05:58:08.011Z,82.36
2018-05-17T06:01:10.485Z,82.68
2018-05-17T06:04:12.964Z,83.00
2018-05-17T06:07:15.425Z,82.99
2018-05-17T06:10:17.863Z,83.53
2018-05-17T06:13:20.359Z,82.04
2018-05-17T06:16:23.009Z,82.16
2018-05-17T06:19:25.438Z,82.72
2018-05-17T06:22:27.976Z,82.41
2018-05-17T06:25:30.464Z,82.05
2018-05-17T06:28:32.961Z,81.76
2018-05-17T06:31:35.449Z,81.12
2018-05-17T06:34:38.478Z,81.18
2018-05-17T06:37:41.037Z,80.81
2018-05-17T06:40:43.455Z,81.03
2018-05-17T06:43:45.908Z,81.38
2018-05-17T06:46:48.371Z,80.75
2018-05-17T06:49:50.844Z,80.84
2018-05-17T06:52:53.423Z,80.91
2018-05-17T06:55:55.878Z,80.46
2018-05-17T06:58:58.420Z,79.53
2018-05-17T07:02:00.904Z,79.34
2018-05-17T07:05:03.414Z,77.45
2018-05-17T07:08:05.919Z,78.41
2018-05-17T07:11:08.386Z,78.63
2018-05-17T07:14:10.879Z,78.50
2018-05-17T07:17:13.311Z,77.98
2018-05-17T07:20:15.818Z,78.47
2018-05-17T07:23:18.310Z,78.23
2018-05-17T07:26:20.748Z,77.53
2018-05-17T07:29:23.255Z,76.52
2018-05-17T07:32:25.740Z,76.41
2018-05-17T07:35:28.214Z,75.44
2018-05-17T07:38:30.664Z,75.05
2018-05-17T07:41:33.079Z,75.41
2018-05-17T07:44:35.576Z,74.70
2018-05-17T07:47:38.096Z,73.83
2018-05-17T07:50:40.546Z,73.72
2018-05-17T07:53:43.164Z,74.86
2018-05-17T07:56:45.769Z,74.25
2018-05-17T07:59:48.250Z,72.83
2018-05-17T08:02:50.695Z,71.56
2018-05-17T08:05:53.176Z,70.55
2018-05-17T08:08:55.750Z,70.93
2018-05-17T08:11:58.269Z,72.64
2018-05-17T08:15:00.840Z,72.59
2018-05-17T08:18:03.485Z,72.09
2018-05-17T08:21:05.935Z,72.55
2018-05-17T08:24:08.399Z,71.90
2018-05-17T08:27:10.891Z,71.77
2018-05-17T08:30:13.384Z,72.25
2018-05-17T08:33:15.836Z,70.64
2018-05-17T08:36:18.355Z,69.78
2018-05-17T08:39:20.754Z,70.96
2018-05-17T08:42:23.209Z,69.84
2018-05-17T08:45:25.688Z,68.61
2018-05-17T08:48:28.257Z,68.31
2018-05-17T08:51:30.690Z,69.21
2018-05-17T08:54:33.168Z,67.49
2018-05-17T08:57:35.636Z,67.92
2018-05-17T09:00:38.081Z,67.52
2018-05-17T09:03:40.560Z,67.61
2018-05-17T09:06:43.010Z,67.61
2018-05-17T09:09:45.511Z,67.30
2018-05-17T09:12:48.011Z,67.29
2018-05-17T09:15:50.622Z,65.57
2018-05-17T09:18:53.157Z,67.39
2018-05-17T09:21:55.597Z,65.89
2018-05-17T09:24:58.112Z,65.27
2018-05-17T09:28:00.612Z,64.94
2018-05-17T09:31:03.105Z,66.32
2018-05-17T09:34:05.676Z,65.16
2018-05-17T09:37:08.128Z,63.08
2018-05-17T09:40:10.589Z,63.18
2018-05-17T09:43:13.057Z,63.88
2018-05-17T09:46:15.523Z,66.33
2018-05-17T09:49:18.002Z,65.78
2018-05-17T09:52:20.476Z,64.67
2018-05-17T09:55:22.985Z,66.28
2018-05-17T09:58:25.466Z,64.79
2018-05-17T10:01:27.915Z,66.56
2018-05-17T10:04:30.426Z,65.08
2018-05-17T10:07:32.916Z,64.81
2018-05-17T10:10:35.477Z,64.87
2018-05-17T10:13:37.950Z,63.84
2018-05-17T10:16:40.526Z,63.87
2018-05-17T10:19:43.010Z,63.25
2018-05-17T10:22:45.567Z,62.60
2018-05-17T10:25:48.048Z,62.28
2018-05-17T10:28:50.557Z,63.00
2018-05-17T10:31:53.016Z,63.46
2018-05-17T10:34:55.597Z,63.38
2018-05-17T10:37:58.097Z,62.90
2018-05-17T10:41:00.574Z,64.35
2018-05-17T10:44:03.056Z,64.68
2018-05-17T10:47:05.541Z,63.53
2018-05-17T10:50:08.053Z,61.00
2018-05-17T10:53:10.559Z,62.21
2018-05-17T10:56:13.105Z,60.26
2018-05-17T10:59:15.567Z,61.08
2018-05-17T11:02:18.065Z,59.57
2018-05-17T11:05:20.540Z,60.39
2018-05-17T11:08:23.035Z,61.04
2018-05-17T11:11:25.526Z,60.70
2018-05-17T11:14:27.971Z,59.86
2018-05-17T11:17:30.471Z,61.02
2018-05-17T11:20:32.941Z,61.34
2018-05-17T11:23:35.436Z,60.98
2018-05-17T11:26:37.947Z,60.24
2018-05-17T11:29:40.422Z,60.31
2018-05-17T11:32:42.963Z,60.99
2018-05-17T11:35:45.468Z,61.05
2018-05-17T11:38:47.956Z,59.69
2018-05-17T11:41:50.441Z,59.42
2018-05-17T11:44:52.872Z,58.49
2018-05-17T11:47:55.372Z,59.99
2018-05-17T11:50:57.943Z,58.91
2018-05-17T11:54:00.434Z,56.12
2018-05-17T11:57:02.941Z,56.01
2018-05-17T12:00:05.528Z,59.31
2018-05-17T12:03:07.992Z,58.18
2018-05-17T12:06:10.544Z,58.06
2018-05-17T12:09:13.098Z,56.81
2018-05-17T12:12:15.652Z,56.81
2018-05-17T12:15:18.097Z,57.11
2018-05-17T12:18:20.688Z,57.57
2018-05-17T12:21:23.195Z,60.52
2018-05-17T12:24:25.746Z,59.65
2018-05-17T12:27:28.304Z,57.97
2018-05-17T12:30:30.767Z,59.08
2018-05-17T12:33:33.276Z,59.44
2018-05-17T12:36:35.792Z,59.06
2018-05-17T12:39:38.261Z,57.99
2018-05-17T12:42:40.909Z,59.41
2018-05-17T12:45:43.452Z,59.20
2018-05-17T12:48:46.014Z,58.45
2018-05-17T12:51:48.525Z,57.48
2018-05-17T12:54:51.157Z,59.96
2018-05-17T12:57:53.694Z,56.04
2018-05-17T13:00:56.208Z,58.31
2018-05-17T13:03:58.809Z,57.31
2018-05-17T13:07:01.471Z,56.89
2018-05-17T13:10:03.954Z,55.70
2018-05-17T13:13:06.509Z,56.95
2018-05-17T13:16:08.874Z,56.82
2018-05-17T13:19:11.347Z,57.61
2018-05-17T13:22:13.822Z,56.68
2018-05-17T13:25:16.316Z,57.16
2018-05-17T13:28:18.863Z,57.24
2018-05-17T13:31:21.364Z,56.76
2018-05-17T13:34:23.839Z,56.68
2018-05-17T13:37:26.410Z,56.12
2018-05-17T13:40:29.551Z,57.19
2018-05-17T13:43:32.057Z,57.01
2018-05-17T13:46:34.574Z,57.63
2018-05-17T13:49:37.088Z,57.39
2018-05-17T13:52:39.632Z,56.63
2018-05-17T13:55:42.124Z,57.68
2018-05-17T13:58:44.751Z,56.84
2018-05-17T14:01:47.279Z,58.40
2018-05-17T14:04:49.759Z,60.35
2018-05-17T14:07:52.273Z,60.45
2018-05-17T14:10:54.777Z,58.66
2018-05-17T14:13:57.246Z,60.41
2018-05-17T14:16:59.758Z,61.90
2018-05-17T14:20:02.264Z,61.01
2018-05-17T14:23:04.784Z,62.98
2018-05-17T14:26:07.279Z,62.91
2018-05-17T14:29:09.865Z,64.37
2018-05-17T14:32:12.384Z,65.60
2018-05-17T14:35:14.900Z,64.18
2018-05-17T14:38:17.357Z,65.01
2018-05-17T14:41:19.899Z,65.39
2018-05-17T14:44:22.410Z,66.51
2018-05-17T14:47:24.875Z,66.33
2018-05-17T14:50:27.370Z,66.33
2018-05-17T14:53:29.839Z,66.65
2018-05-17T14:56:32.356Z,67.52
2018-05-17T14:59:34.825Z,68.38
2018-05-17T15:02:37.346Z,66.89
2018-05-17T15:05:39.903Z,67.36
2018-05-17T15:08:42.535Z,68.37
2018-05-17T15:11:45.033Z,68.48
2018-05-17T15:14:47.525Z,68.42
2018-05-17T15:17:50.056Z,68.90
2018-05-17T15:20:53.279Z,68.82
2018-05-17T15:23:55.784Z,68.92
2018-05-17T15:26:58.215Z,69.35
2018-05-17T15:30:00.703Z,70.03
2018-05-17T15:33:03.274Z,69.68
2018-05-17T15:36:05.815Z,71.03
2018-05-17T15:39:08.299Z,70.26
2018-05-17T15:42:10.863Z,70.58
2018-05-17T15:45:13.343Z,71.40
2018-05-17T15:48:15.887Z,70.97
2018-05-17T15:51:18.403Z,72.06
2018-05-17T15:54:20.877Z,72.21
2018-05-17T15:57:23.415Z,72.44
2018-05-17T16:00:25.903Z,71.67
2018-05-17T16:03:28.406Z,71.90
2018-05-17T16:06:30.897Z,72.68
2018-05-17T16:09:33.400Z,73.02
2018-05-17T16:12:35.831Z,72.93
2018-05-17T16:15:38.376Z,72.99
2018-05-17T16:18:40.880Z,73.53
2018-05-17T16:21:43.395Z,74.09
2018-05-17T16:24:45.856Z,73.97
2018-05-17T16:27:48.357Z,73.99
2018-05-17T16:30:50.870Z,74.13
2018-05-17T16:33:53.331Z,74.01
2018-05-17T16:36:55.793Z,74.45
2018-05-17T16:39:58.246Z,74.88
2018-05-17T16:43:00.771Z,75.28
2018-05-17T16:46:03.356Z,75.11
2018-05-17T16:49:05.822Z,75.00
2018-05-17T16:55:17.061Z,76.11
2018-05-17T16:58:19.561Z,75.42
2018-05-17T17:01:22.209Z,75.73
2018-05-17T17:04:24.839Z,75.33
2018-05-17T17:07:27.300Z,75.45
2018-05-17T17:10:30.595Z,75.43
2018-05-17T17:13:33.070Z,76.47
2018-05-17T17:16:35.627Z,76.18
2018-05-17T17:19:38.102Z,76.61
2018-05-17T17:22:40.574Z,76.36
2018-05-17T17:25:43.207Z,76.93
2018-05-17T17:28:45.782Z,77.25
2018-05-17T17:31:48.286Z,77.03
2018-05-17T17:34:50.787Z,76.66
2018-05-17T17:37:53.325Z,77.29
2018-05-17T17:40:56.130Z,77.76
2018-05-17T17:43:58.654Z,77.60
2018-05-17T17:47:01.157Z,77.53
2018-05-17T17:50:03.705Z,77.83
2018-05-17T17:53:06.163Z,77.84
2018-05-17T17:56:08.661Z,78.11
2018-05-17T17:59:11.201Z,78.26
2018-05-17T18:02:13.765Z,78.24
2018-05-17T18:05:16.458Z,78.47
2018-05-17T18:08:18.898Z,79.05
2018-05-17T18:11:21.390Z,78.96
2018-05-17T18:14:23.926Z,78.76
2018-05-17T18:17:26.375Z,79.66
2018-05-17T18:20:29.043Z,79.10
2018-05-17T18:23:32.406Z,79.24
2018-05-17T18:26:36.773Z,79.24
2018-05-17T18:29:39.346Z,79.89
2018-05-17T18:32:41.864Z,79.39
2018-05-17T18:35:44.304Z,79.76
2018-05-17T18:38:46.822Z,80.09
2018-05-17T18:41:49.416Z,80.00
2018-05-17T18:44:52.052Z,80.24
2018-05-17T18:47:54.597Z,79.72
2018-05-17T18:50:57.119Z,80.72
2018-05-17T18:53:59.589Z,80.27
2018-05-17T18:57:02.211Z,80.27
2018-05-17T19:00:04.674Z,80.24
2018-05-17T19:03:07.791Z,79.96
2018-05-17T19:06:10.291Z,80.24
2018-05-17T19:09:12.837Z,80.67
2018-05-17T19:12:15.341Z,80.72
2018-05-17T19:15:17.837Z,80.46
2018-05-17T19:18:20.422Z,80.51
2018-05-17T19:21:22.963Z,80.08
2018-05-17T19:24:25.517Z,80.22
2018-05-17T19:27:27.952Z,80.34
2018-05-17T19:30:30.453Z,80.70
2018-05-17T19:33:33.009Z,80.53
2018-05-17T19:36:35.943Z,80.52
2018-05-17T19:39:38.431Z,80.91
2018-05-17T19:42:40.918Z,80.76
2018-05-17T19:45:43.500Z,80.43
2018-05-17T19:48:45.926Z,80.46
2018-05-17T19:51:48.544Z,80.65
2018-05-17T19:54:51.155Z,80.42
2018-05-17T19:57:53.623Z,80.62
2018-05-17T20:00:56.177Z,81.04
2018-05-17T20:03:58.751Z,81.17
2018-05-17T20:07:01.373Z,80.85
2018-05-17T20:10:03.859Z,81.06
2018-05-17T20:13:06.397Z,80.75
2018-05-17T20:16:08.867Z,80.90
2018-05-17T20:19:11.383Z,81.10
2018-05-17T20:22:14.008Z,81.27
2018-05-17T20:25:16.447Z,81.01
2018-05-17T20:28:19.048Z,81.21
2018-05-17T20:31:21.514Z,81.45
2018-05-17T20:34:23.983Z,81.39
2018-05-17T20:37:26.503Z,81.49
2018-05-17T20:40:29.086Z,81.40
2018-05-17T20:43:31.647Z,81.79
2018-05-17T20:46:34.158Z,81.83
2018-05-17T20:49:36.723Z,82.02
2018-05-17T20:52:39.264Z,82.34
2018-05-17T20:55:41.731Z,82.45
2018-05-17T20:58:44.222Z,82.48
2018-05-17T21:01:46.704Z,82.26
2018-05-17T21:04:49.169Z,82.36
2018-05-17T21:07:51.929Z,82.46
2018-05-17T21:10:54.449Z,82.34
2018-05-17T21:13:56.928Z,82.23
2018-05-17T21:17:05.718Z,82.81
2018-05-17T21:20:08.330Z,82.88
2018-05-17T21:23:10.807Z,82.76
2018-05-17T21:26:13.333Z,83.14
2018-05-17T21:29:15.968Z,83.03
2018-05-17T21:32:18.465Z,82.71
2018-05-17T21:35:20.979Z,83.07
2018-05-17T21:38:23.462Z,83.06
2018-05-17T21:41:25.934Z,83.10
2018-05-17T21:44:28.434Z,83.25
2018-05-17T21:47:30.933Z,83.36
2018-05-17T21:50:33.449Z,82.98
2018-05-17T21:53:35.918Z,83.11
2018-05-17T21:56:38.470Z,82.64
2018-05-17T21:59:40.923Z,83.11
2018-05-17T22:02:43.394Z,82.94
2018-05-17T22:05:45.837Z,83.10
2018-05-17T22:08:48.455Z,83.40
2018-05-17T22:11:50.900Z,83.78
2018-05-17T22:14:53.408Z,83.32
2018-05-17T22:17:55.841Z,83.97
2018-05-17T22:20:58.314Z,84.29
2018-05-17T22:24:00.782Z,83.65
2018-05-17T22:27:03.283Z,83.32
2018-05-17T22:30:05.745Z,83.06
2018-05-17T22:33:08.245Z,83.20
2018-05-17T22:36:10.746Z,82.78
2018-05-17T22:39:13.220Z,82.94
2018-05-17T22:42:15.790Z,83.20
2018-05-17T22:45:18.176Z,83.74
2018-05-17T22:48:20.720Z,84.35
2018-05-17T22:51:23.218Z,84.36
2018-05-17T22:54:25.740Z,84.65
2018-05-17T22:57:39.948Z,85.06
2018-05-17T23:00:42.401Z,85.13
2018-05-17T23:03:44.864Z,85.22
2018-05-17T23:06:47.361Z,84.63
2018-05-17T23:09:49.834Z,84.23
2018-05-17T23:12:52.284Z,84.06
2018-05-17T23:15:54.749Z,83.68
2018-05-17T23:18:57.247Z,83.89
2018-05-17T23:21:59.713Z,84.13
2018-05-17T23:25:02.195Z,84.22
2018-05-17T23:28:04.675Z,84.40
2018-05-17T23:31:07.155Z,84.47
2018-05-17T23:34:09.706Z,84.63
2018-05-17T23:37:21.069Z,84.70
2018-05-17T23:40:35.360Z,84.71
2018-05-17T23:43:37.846Z,84.90
2018-05-17T23:46:40.295Z,84.69
2018-05-17T23:49:42.765Z,84.34
2018-05-17T23:52:45.287Z,83.76
2018-05-17T23:55:47.841Z,83.78
2018-05-17T23:58:50.360Z,83.74
